createdAt,value
2023-03-11T00:04:01.761Z,16.11
2023-03-11T00:09:05.350Z,15.31
2023-03-11T00:14:07.581Z,15.35
2023-03-11T00:19:11.300Z,15.72
2023-03-11T00:24:14.126Z,15.77
2023-03-11T00:29:16.271Z,15.66
2023-03-11T00:34:19.307Z,15.79
2023-03-11T00:39:21.519Z,16.07
2023-03-11T00:44:23.848Z,16.32
2023-03-11T00:49:26.054Z,16.27
2023-03-11T00:54:28.538Z,16.37
2023-03-11T00:59:30.683Z,16.47
2023-03-11T01:04:32.818Z,16.42
2023-03-11T01:09:35.090Z,16.66
2023-03-11T01:14:37.219Z,16.64
2023-03-11T01:19:39.430Z,16.60
2023-03-11T01:24:41.668Z,16.52
2023-03-11T01:29:43.839Z,16.59
2023-03-11T01:34:45.961Z,16.64
2023-03-11T01:39:48.164Z,16.48
2023-03-11T01:44:50.410Z,16.40
2023-03-11T01:49:53.012Z,15.70
2023-03-11T01:54:55.196Z,15.68
2023-03-11T02:00:01.788Z,15.16
2023-03-11T02:05:05.264Z,15.04
2023-03-11T02:10:09.007Z,15.22
2023-03-11T02:15:12.788Z,15.30
2023-03-11T02:20:41.039Z,15.72
2023-03-11T02:26:00.705Z,15.79
2023-03-11T02:31:03.871Z,15.75
2023-03-11T02:36:06.467Z,15.47
2023-03-11T02:41:09.093Z,15.70
2023-03-11T02:46:13.161Z,15.83
2023-03-11T02:51:15.906Z,15.09
2023-03-11T02:56:18.027Z,14.87
2023-03-11T03:01:20.260Z,14.20
2023-03-11T03:06:22.611Z,13.40
2023-03-11T03:11:24.888Z,13.89
2023-03-11T03:16:27.128Z,14.48
2023-03-11T03:21:29.351Z,14.18
2023-03-11T03:26:31.548Z,14.28
2023-03-11T03:31:33.726Z,14.34
2023-03-11T03:36:36.006Z,14.61
2023-03-11T03:41:38.837Z,14.94
2023-03-11T03:46:40.939Z,14.48
2023-03-11T03:51:43.111Z,14.54
2023-03-11T03:56:45.237Z,14.78
2023-03-11T04:01:47.387Z,15.16
2023-03-11T04:06:49.917Z,15.39
2023-03-11T04:11:52.096Z,15.60
2023-03-11T04:16:54.332Z,15.57
2023-03-11T04:21:56.774Z,15.62
2023-03-11T04:26:58.857Z,15.62
2023-03-11T04:32:02.672Z,15.59
2023-03-11T04:37:05.012Z,15.55
2023-03-11T04:42:07.371Z,15.58
2023-03-11T04:47:09.893Z,15.20
2023-03-11T04:52:12.755Z,13.66
2023-03-11T04:57:14.928Z,13.16
2023-03-11T05:02:17.065Z,12.52
2023-03-11T05:07:19.266Z,13.18
2023-03-11T05:12:21.379Z,13.79
2023-03-11T05:17:25.157Z,13.46
2023-03-11T05:22:27.725Z,12.57
2023-03-11T05:27:29.913Z,12.42
2023-03-11T05:32:32.171Z,12.41
2023-03-11T05:37:35.667Z,13.10
2023-03-11T05:42:38.352Z,13.71
2023-03-11T05:47:42.608Z,14.30
2023-03-11T05:52:44.895Z,14.30
2023-03-11T05:57:47.027Z,14.61
2023-03-11T06:02:49.260Z,14.83
2023-03-11T06:07:51.467Z,15.03
2023-03-11T06:12:53.565Z,15.15
2023-03-11T06:17:55.742Z,15.20
2023-03-11T06:22:57.978Z,15.31
2023-03-11T06:28:00.121Z,15.76
2023-03-11T06:33:02.472Z,15.81
2023-03-11T06:38:04.734Z,15.92
2023-03-11T06:43:06.926Z,16.17
2023-03-11T06:48:09.088Z,16.28
2023-03-11T06:53:11.512Z,16.35
2023-03-11T06:58:14.493Z,16.55
2023-03-11T07:03:16.750Z,16.73
2023-03-11T07:08:19.833Z,16.96
2023-03-11T07:13:22.072Z,17.25
2023-03-11T07:18:24.329Z,17.36
2023-03-11T07:23:27.342Z,17.52
2023-03-11T07:28:30.318Z,17.55
2023-03-11T07:33:34.264Z,17.56
2023-03-11T07:38:36.931Z,17.62
2023-03-11T07:43:40.514Z,17.79
2023-03-11T07:48:43.166Z,17.98
2023-03-11T07:53:46.389Z,18.15
2023-03-11T07:58:48.672Z,18.18
2023-03-11T08:03:57.574Z,18.42
2023-03-11T08:09:00.959Z,17.96
2023-03-11T08:14:04.457Z,17.80
2023-03-11T08:19:06.707Z,17.69
2023-03-11T08:24:12.273Z,17.92
2023-03-11T08:29:15.285Z,18.08
2023-03-11T08:34:18.481Z,18.22
2023-03-11T08:39:21.623Z,18.41
2023-03-11T08:44:24.412Z,18.28
2023-03-11T08:49:27.481Z,18.22
2023-03-11T08:54:30.862Z,18.33
2023-03-11T08:59:33.380Z,18.51
2023-03-11T09:04:35.550Z,18.74
2023-03-11T09:09:38.346Z,18.58
2023-03-11T09:14:44.357Z,18.47
2023-03-11T09:19:46.713Z,18.71
2023-03-11T09:24:48.974Z,18.69
2023-03-11T09:29:51.209Z,18.73
2023-03-11T09:34:53.397Z,18.86
2023-03-11T09:39:55.589Z,18.89
2023-03-11T09:45:25.229Z,18.98
2023-03-11T09:50:31.376Z,18.89
2023-03-11T09:55:52.693Z,18.97
2023-03-11T10:00:55.754Z,19.06
2023-03-11T10:06:07.104Z,19.53
2023-03-11T10:11:45.225Z,19.52
2023-03-11T10:16:58.277Z,19.70
2023-03-11T10:22:21.327Z,19.38
2023-03-11T10:27:31.562Z,19.70
2023-03-11T10:33:04.432Z,19.82
2023-03-11T10:38:17.339Z,19.68
2023-03-11T10:43:25.379Z,19.65
2023-03-11T10:48:27.853Z,19.70
2023-03-11T10:53:30.658Z,19.64
2023-03-11T10:58:32.855Z,20.06
2023-03-11T11:03:36.423Z,20.48
2023-03-11T11:08:38.626Z,20.37
2023-03-11T11:13:41.206Z,20.36
2023-03-11T11:18:49.525Z,20.60
2023-03-11T11:24:07.254Z,20.71
2023-03-11T11:29:13.233Z,20.73
2023-03-11T11:34:34.204Z,20.65
2023-03-11T11:39:59.326Z,20.83
2023-03-11T11:45:08.338Z,21.27
2023-03-11T11:50:35.774Z,21.50
2023-03-11T11:55:46.934Z,21.45
2023-03-11T12:01:28.579Z,21.03
2023-03-11T12:06:53.194Z,20.86
2023-03-11T12:12:04.316Z,20.62
2023-03-11T12:17:09.037Z,20.50
2023-03-11T12:22:21.604Z,20.16
2023-03-11T12:27:29.136Z,20.01
2023-03-11T12:32:35.265Z,20.03
2023-03-11T12:37:37.820Z,19.99
2023-03-11T12:42:41.418Z,19.92
2023-03-11T12:47:44.119Z,19.69
2023-03-11T12:52:55.607Z,19.70
2023-03-11T12:58:33.252Z,19.67
2023-03-11T13:03:57.238Z,19.71
2023-03-11T13:09:01.102Z,19.88
2023-03-11T13:14:33.171Z,19.95
2023-03-11T13:19:37.968Z,20.23
2023-03-11T13:24:50.123Z,20.09
2023-03-11T13:30:15.474Z,19.99
2023-03-11T13:35:24.936Z,19.82
2023-03-11T13:40:26.897Z,19.57
2023-03-11T13:45:33.065Z,19.57
2023-03-11T13:50:44.774Z,19.24
2023-03-11T13:55:49.029Z,19.17
2023-03-11T14:01:01.141Z,19.35
2023-03-11T14:06:07.198Z,19.52
2023-03-11T14:11:13.117Z,19.75
2023-03-11T14:16:23.882Z,19.57
2023-03-11T14:21:28.727Z,19.16
2023-03-11T14:26:36.199Z,19.22
2023-03-11T14:31:42.054Z,19.13
2023-03-11T14:36:48.727Z,19.19
2023-03-11T14:41:55.949Z,18.92
2023-03-11T14:47:10.568Z,18.95
2023-03-11T14:52:22.011Z,18.43
2023-03-11T14:57:53.955Z,18.42
2023-03-11T15:03:03.597Z,18.48
2023-03-11T15:08:07.767Z,18.31
2023-03-11T15:13:16.966Z,18.14
2023-03-11T15:18:24.953Z,18.03
2023-03-11T15:23:27.961Z,18.17
2023-03-11T15:28:32.814Z,18.05
2023-03-11T15:33:35.355Z,18.04
2023-03-11T15:38:38.023Z,18.01
2023-03-11T15:43:50.511Z,17.99
2023-03-11T15:48:52.727Z,17.92
2023-03-11T15:53:56.506Z,17.90
2023-03-11T15:58:58.667Z,17.98
2023-03-11T16:04:02.144Z,17.86
2023-03-11T16:09:06.289Z,17.80
2023-03-11T16:14:17.892Z,17.92
2023-03-11T16:19:20.127Z,17.73
2023-03-11T16:24:26.754Z,17.55
2023-03-11T16:29:29.880Z,17.38
2023-03-11T16:34:32.067Z,17.23
2023-03-11T16:39:36.106Z,17.15
2023-03-11T16:44:38.322Z,17.35
2023-03-11T16:49:41.248Z,17.07
2023-03-11T16:54:43.385Z,17.24
2023-03-11T16:59:45.845Z,17.23
2023-03-11T17:04:48.255Z,17.11
2023-03-11T17:09:51.802Z,17.16
2023-03-11T17:14:54.623Z,16.85
2023-03-11T17:19:56.936Z,16.73
2023-03-11T17:24:59.166Z,16.84
2023-03-11T17:30:07.573Z,16.75
2023-03-11T17:35:10.265Z,16.55
2023-03-11T17:40:13.802Z,16.31
2023-03-11T17:45:16.071Z,16.35
2023-03-11T17:50:18.634Z,16.76
2023-03-11T17:55:20.874Z,16.56
2023-03-11T18:00:23.213Z,16.74
2023-03-11T18:05:25.381Z,16.97
2023-03-11T18:10:28.651Z,16.46
2023-03-11T18:15:30.802Z,16.46
2023-03-11T18:20:33.068Z,16.38
2023-03-11T18:25:35.187Z,16.28
2023-03-11T18:30:41.025Z,16.14
2023-03-11T18:35:43.163Z,16.27
2023-03-11T18:40:45.455Z,16.06
2023-03-11T18:45:47.617Z,15.75
2023-03-11T18:50:54.423Z,15.41
2023-03-11T18:56:08.392Z,15.51
2023-03-11T19:01:15.661Z,15.54
2023-03-11T19:06:18.448Z,15.85
2023-03-11T19:11:23.301Z,16.08
2023-03-11T19:16:27.378Z,16.33
2023-03-11T19:21:29.853Z,15.88
2023-03-11T19:26:44.271Z,16.18
2023-03-11T19:31:47.711Z,16.16
2023-03-11T19:36:49.962Z,16.20
2023-03-11T19:41:52.629Z,15.96
2023-03-11T19:46:54.944Z,15.73
2023-03-11T19:51:57.672Z,15.98
2023-03-11T19:56:59.815Z,16.29
2023-03-11T20:02:03.323Z,16.29
2023-03-11T20:07:06.323Z,16.34
2023-03-11T20:12:08.664Z,16.48
2023-03-11T20:17:10.917Z,16.65
2023-03-11T20:22:14.357Z,16.96
2023-03-11T20:27:17.795Z,16.99
2023-03-11T20:32:20.064Z,17.05
2023-03-11T20:37:22.280Z,17.08
2023-03-11T20:42:24.694Z,17.07
2023-03-11T20:47:27.014Z,16.95
2023-03-11T20:52:34.646Z,17.05
2023-03-11T20:57:37.629Z,17.02
2023-03-11T21:02:41.944Z,17.11
2023-03-11T21:07:44.337Z,17.00
2023-03-11T21:12:46.566Z,17.10
2023-03-11T21:17:48.860Z,17.07
2023-03-11T21:22:51.147Z,17.12
2023-03-11T21:27:53.321Z,17.11
2023-03-11T21:32:55.785Z,16.97
2023-03-11T21:37:58.210Z,17.04
2023-03-11T21:43:02.146Z,16.85
2023-03-11T21:48:07.169Z,16.79
2023-03-11T21:53:09.477Z,16.72
2023-03-11T21:58:11.831Z,16.82
2023-03-11T22:03:14.513Z,16.65
2023-03-11T22:08:17.452Z,16.46
2023-03-11T22:13:20.062Z,16.42
2023-03-11T22:18:22.614Z,15.56
2023-03-11T22:23:25.813Z,15.83
2023-03-11T22:28:47.513Z,15.80
2023-03-11T22:33:49.792Z,15.37
2023-03-11T22:38:52.056Z,14.77
2023-03-11T22:43:54.386Z,13.85
2023-03-11T22:48:56.683Z,14.14
2023-03-11T22:53:58.854Z,14.05
2023-03-11T22:59:01.226Z,13.94
2023-03-11T23:04:04.378Z,13.93
2023-03-11T23:09:06.706Z,13.74
2023-03-11T23:14:08.828Z,14.06
2023-03-11T23:19:11.781Z,14.27
2023-03-11T23:24:13.973Z,14.13
2023-03-11T23:29:16.225Z,14.69
2023-03-11T23:34:18.398Z,15.06
2023-03-11T23:39:21.336Z,15.34
2023-03-11T23:44:25.743Z,15.68
2023-03-11T23:49:28.345Z,15.81
2023-03-11T23:54:30.490Z,15.82
2023-03-11T23:59:33.235Z,15.58
